sensor_id;sensor_type;location;lat;lon;timestamp;temperature;humidity
53844;DHT22;39744;53.314;5.710;2022-12-18T00:01:41;-2.40;99.90
53844;DHT22;39744;53.314;5.710;2022-12-18T00:04:15;-2.10;99.90
53844;DHT22;39744;53.314;5.710;2022-12-18T00:06:44;-2.60;99.90
53844;DHT22;39744;53.314;5.710;2022-12-18T00:09:10;-2.30;99.90
53844;DHT22;39744;53.314;5.710;2022-12-18T00:11:35;-2.60;99.90
53844;DHT22;39744;53.314;5.710;2022-12-18T00:14:01;-2.30;99.90
53844;DHT22;39744;53.314;5.710;2022-12-18T00:16:27;-2.50;99.90
53844;DHT22;39744;53.314;5.710;2022-12-18T00:18:55;-2.10;99.90
53844;DHT22;39744;53.314;5.710;2022-12-18T00:21:24;-2.60;99.90
53844;DHT22;39744;53.314;5.710;2022-12-18T00:23:51;-2.60;99.90
53844;DHT22;39744;53.314;5.710;2022-12-18T00:26:22;-2.40;99.90
53844;DHT22;39744;53.314;5.710;2022-12-18T00:28:48;-2.70;99.90
53844;DHT22;39744;53.314;5.710;2022-12-18T00:31:17;-2.20;99.90
53844;DHT22;39744;53.314;5.710;2022-12-18T00:33:43;-2.30;99.90
53844;DHT22;39744;53.314;5.710;2022-12-18T00:36:12;-2.70;99.90
53844;DHT22;39744;53.314;5.710;2022-12-18T00:38:38;-2.60;99.90
53844;DHT22;39744;53.314;5.710;2022-12-18T00:41:04;-2.70;99.90
53844;DHT22;39744;53.314;5.710;2022-12-18T00:43:33;-2.30;99.90
53844;DHT22;39744;53.314;5.710;2022-12-18T00:45:59;-2.60;99.90
53844;DHT22;39744;53.314;5.710;2022-12-18T00:48:24;-2.20;99.90
53844;DHT22;39744;53.314;5.710;2022-12-18T00:50:50;-2.60;99.90
53844;DHT22;39744;53.314;5.710;2022-12-18T00:53:17;-2.50;99.90
53844;DHT22;39744;53.314;5.710;2022-12-18T00:55:43;-2.20;99.90
53844;DHT22;39744;53.314;5.710;2022-12-18T00:58:09;-2.60;99.90
53844;DHT22;39744;53.314;5.710;2022-12-18T01:00:36;-2.70;99.90
53844;DHT22;39744;53.314;5.710;2022-12-18T01:03:02;-2.00;99.90
53844;DHT22;39744;53.314;5.710;2022-12-18T01:05:27;-2.70;99.90
53844;DHT22;39744;53.314;5.710;2022-12-18T01:07:53;-2.80;99.90
53844;DHT22;39744;53.314;5.710;2022-12-18T01:10:19;-2.40;99.90
53844;DHT22;39744;53.314;5.710;2022-12-18T01:12:44;-2.70;99.90
53844;DHT22;39744;53.314;5.710;2022-12-18T01:15:12;-2.60;99.90
53844;DHT22;39744;53.314;5.710;2022-12-18T01:17:37;-2.40;99.90
53844;DHT22;39744;53.314;5.710;2022-12-18T01:20:03;-2.70;99.90
53844;DHT22;39744;53.314;5.710;2022-12-18T01:22:29;-2.70;99.90
53844;DHT22;39744;53.314;5.710;2022-12-18T01:24:55;-2.70;99.90
53844;DHT22;39744;53.314;5.710;2022-12-18T01:27:21;-2.40;99.90
53844;DHT22;39744;53.314;5.710;2022-12-18T01:29:46;-2.50;99.90
53844;DHT22;39744;53.314;5.710;2022-12-18T01:32:12;-2.50;99.90
53844;DHT22;39744;53.314;5.710;2022-12-18T01:34:38;-2.70;99.90
53844;DHT22;39744;53.314;5.710;2022-12-18T01:37:07;-2.50;99.90
53844;DHT22;39744;53.314;5.710;2022-12-18T01:39:32;-2.70;99.90
53844;DHT22;39744;53.314;5.710;2022-12-18T01:41:59;-2.30;99.90
53844;DHT22;39744;53.314;5.710;2022-12-18T01:44:57;-2.40;99.90
53844;DHT22;39744;53.314;5.710;2022-12-18T01:49:52;-2.80;99.90
53844;DHT22;39744;53.314;5.710;2022-12-18T01:52:19;-2.70;99.90
53844;DHT22;39744;53.314;5.710;2022-12-18T01:54:46;-2.50;99.90
53844;DHT22;39744;53.314;5.710;2022-12-18T01:57:12;-2.40;99.90
53844;DHT22;39744;53.314;5.710;2022-12-18T01:59:40;-2.60;99.90
53844;DHT22;39744;53.314;5.710;2022-12-18T02:02:07;-2.80;99.90
53844;DHT22;39744;53.314;5.710;2022-12-18T02:04:33;-2.70;99.90
53844;DHT22;39744;53.314;5.710;2022-12-18T02:10:02;-2.70;99.90
53844;DHT22;39744;53.314;5.710;2022-12-18T02:12:43;-2.70;99.90
53844;DHT22;39744;53.314;5.710;2022-12-18T02:15:16;-2.90;99.90
53844;DHT22;39744;53.314;5.710;2022-12-18T02:17:52;-2.70;99.90
53844;DHT22;39744;53.314;5.710;2022-12-18T02:20:34;-2.90;99.90
53844;DHT22;39744;53.314;5.710;2022-12-18T02:23:04;-3.00;99.90
53844;DHT22;39744;53.314;5.710;2022-12-18T02:25:58;-3.10;99.90
53844;DHT22;39744;53.314;5.710;2022-12-18T02:28:32;-2.60;99.90
53844;DHT22;39744;53.314;5.710;2022-12-18T02:31:01;-3.10;99.90
53844;DHT22;39744;53.314;5.710;2022-12-18T02:33:29;-3.00;99.90
53844;DHT22;39744;53.314;5.710;2022-12-18T02:35:57;-3.30;99.90
53844;DHT22;39744;53.314;5.710;2022-12-18T02:38:25;-3.20;99.90
53844;DHT22;39744;53.314;5.710;2022-12-18T02:40:51;-2.80;99.90
53844;DHT22;39744;53.314;5.710;2022-12-18T02:43:19;-3.40;99.90
53844;DHT22;39744;53.314;5.710;2022-12-18T02:45:56;-3.00;99.90
53844;DHT22;39744;53.314;5.710;2022-12-18T02:48:33;-3.40;99.90
53844;DHT22;39744;53.314;5.710;2022-12-18T02:51:30;-3.30;99.90
53844;DHT22;39744;53.314;5.710;2022-12-18T02:54:10;-3.50;99.90
53844;DHT22;39744;53.314;5.710;2022-12-18T02:56:44;-3.00;99.90
53844;DHT22;39744;53.314;5.710;2022-12-18T02:59:17;-3.50;99.90
53844;DHT22;39744;53.314;5.710;2022-12-18T03:04:47;-3.50;99.90
53844;DHT22;39744;53.314;5.710;2022-12-18T03:07:19;-3.50;99.90
53844;DHT22;39744;53.314;5.710;2022-12-18T03:09:50;-3.70;99.90
53844;DHT22;39744;53.314;5.710;2022-12-18T03:12:32;-3.50;99.90
53844;DHT22;39744;53.314;5.710;2022-12-18T03:15:14;-3.60;99.90
53844;DHT22;39744;53.314;5.710;2022-12-18T03:17:46;-3.70;99.90
53844;DHT22;39744;53.314;5.710;2022-12-18T03:20:18;-3.60;99.90
53844;DHT22;39744;53.314;5.710;2022-12-18T03:22:45;-3.80;99.90
53844;DHT22;39744;53.314;5.710;2022-12-18T03:25:13;-3.80;99.90
53844;DHT22;39744;53.314;5.710;2022-12-18T03:27:47;-4.20;99.90
53844;DHT22;39744;53.314;5.710;2022-12-18T03:30:14;-3.90;99.90
53844;DHT22;39744;53.314;5.710;2022-12-18T03:33:02;-4.10;99.90
53844;DHT22;39744;53.314;5.710;2022-12-18T03:35:34;-3.90;99.90
53844;DHT22;39744;53.314;5.710;2022-12-18T03:38:00;-3.90;99.90
53844;DHT22;39744;53.314;5.710;2022-12-18T03:40:35;-3.50;99.90
53844;DHT22;39744;53.314;5.710;2022-12-18T03:43:32;-3.70;99.90
53844;DHT22;39744;53.314;5.710;2022-12-18T03:46:09;-3.80;99.90
53844;DHT22;39744;53.314;5.710;2022-12-18T03:48:44;-4.20;99.90
53844;DHT22;39744;53.314;5.710;2022-12-18T03:51:27;-4.10;99.90
53844;DHT22;39744;53.314;5.710;2022-12-18T03:54:00;-4.10;99.90
53844;DHT22;39744;53.314;5.710;2022-12-18T03:56:31;-4.00;99.90
53844;DHT22;39744;53.314;5.710;2022-12-18T03:58:58;-3.70;99.90
53844;DHT22;39744;53.314;5.710;2022-12-18T04:01:30;-4.10;99.90
53844;DHT22;39744;53.314;5.710;2022-12-18T04:04:00;-4.10;99.90
53844;DHT22;39744;53.314;5.710;2022-12-18T04:06:28;-4.30;99.90
53844;DHT22;39744;53.314;5.710;2022-12-18T04:08:54;-4.60;99.90
53844;DHT22;39744;53.314;5.710;2022-12-18T04:11:20;-4.00;99.90
53844;DHT22;39744;53.314;5.710;2022-12-18T04:13:45;-4.30;99.90
53844;DHT22;39744;53.314;5.710;2022-12-18T04:16:11;-4.30;99.90
53844;DHT22;39744;53.314;5.710;2022-12-18T04:18:37;-4.40;99.90
53844;DHT22;39744;53.314;5.710;2022-12-18T04:21:03;-4.40;99.90
53844;DHT22;39744;53.314;5.710;2022-12-18T04:23:28;-4.40;99.90
53844;DHT22;39744;53.314;5.710;2022-12-18T04:25:54;-4.40;99.90
53844;DHT22;39744;53.314;5.710;2022-12-18T04:28:20;-4.50;99.90
53844;DHT22;39744;53.314;5.710;2022-12-18T04:30:46;-4.50;99.90
53844;DHT22;39744;53.314;5.710;2022-12-18T04:33:12;-4.50;99.90
53844;DHT22;39744;53.314;5.710;2022-12-18T04:35:39;-4.50;99.90
53844;DHT22;39744;53.314;5.710;2022-12-18T04:38:06;-4.20;99.90
53844;DHT22;39744;53.314;5.710;2022-12-18T04:40:34;-4.60;99.90
53844;DHT22;39744;53.314;5.710;2022-12-18T04:42:59;-4.60;99.90
53844;DHT22;39744;53.314;5.710;2022-12-18T04:45:25;-4.60;99.90
53844;DHT22;39744;53.314;5.710;2022-12-18T04:47:51;-4.60;99.90
53844;DHT22;39744;53.314;5.710;2022-12-18T04:50:16;-4.60;99.90
53844;DHT22;39744;53.314;5.710;2022-12-18T04:52:42;-4.60;99.90
53844;DHT22;39744;53.314;5.710;2022-12-18T04:55:08;-4.50;99.90
53844;DHT22;39744;53.314;5.710;2022-12-18T04:57:33;-4.60;99.90
53844;DHT22;39744;53.314;5.710;2022-12-18T04:59:59;-4.70;99.90
53844;DHT22;39744;53.314;5.710;2022-12-18T05:02:25;-4.70;99.90
53844;DHT22;39744;53.314;5.710;2022-12-18T05:04:50;-4.70;99.90
53844;DHT22;39744;53.314;5.710;2022-12-18T05:07:16;-4.70;99.90
53844;DHT22;39744;53.314;5.710;2022-12-18T05:09:42;-4.70;99.90
53844;DHT22;39744;53.314;5.710;2022-12-18T05:12:07;-4.70;99.90
53844;DHT22;39744;53.314;5.710;2022-12-18T05:14:33;-4.50;99.90
53844;DHT22;39744;53.314;5.710;2022-12-18T05:16:58;-4.70;99.90
53844;DHT22;39744;53.314;5.710;2022-12-18T05:19:24;-4.70;99.90
53844;DHT22;39744;53.314;5.710;2022-12-18T05:21:50;-4.70;99.90
53844;DHT22;39744;53.314;5.710;2022-12-18T05:24:15;-4.70;99.90
53844;DHT22;39744;53.314;5.710;2022-12-18T05:26:41;-4.70;99.90
53844;DHT22;39744;53.314;5.710;2022-12-18T05:29:07;-4.80;99.90
53844;DHT22;39744;53.314;5.710;2022-12-18T05:31:32;-4.80;99.90
53844;DHT22;39744;53.314;5.710;2022-12-18T05:33:58;-4.80;99.90
53844;DHT22;39744;53.314;5.710;2022-12-18T05:36:24;-4.70;99.90
53844;DHT22;39744;53.314;5.710;2022-12-18T05:38:49;-4.80;99.90
53844;DHT22;39744;53.314;5.710;2022-12-18T05:41:15;-4.80;99.90
53844;DHT22;39744;53.314;5.710;2022-12-18T05:43:41;-4.80;99.90
53844;DHT22;39744;53.314;5.710;2022-12-18T05:46:10;-4.80;99.90
53844;DHT22;39744;53.314;5.710;2022-12-18T05:48:36;-4.90;99.90
53844;DHT22;39744;53.314;5.710;2022-12-18T05:51:07;-4.90;99.90
53844;DHT22;39744;53.314;5.710;2022-12-18T05:53:33;-4.90;99.90
53844;DHT22;39744;53.314;5.710;2022-12-18T05:56:01;-4.90;99.90
53844;DHT22;39744;53.314;5.710;2022-12-18T05:58:27;-4.70;99.90
53844;DHT22;39744;53.314;5.710;2022-12-18T06:00:52;-4.90;99.90
53844;DHT22;39744;53.314;5.710;2022-12-18T06:03:18;-4.90;99.90
53844;DHT22;39744;53.314;5.710;2022-12-18T06:05:45;-4.90;99.90
53844;DHT22;39744;53.314;5.710;2022-12-18T06:08:12;-4.90;99.90
53844;DHT22;39744;53.314;5.710;2022-12-18T06:10:38;-4.90;99.90
53844;DHT22;39744;53.314;5.710;2022-12-18T06:13:05;-4.90;99.90
53844;DHT22;39744;53.314;5.710;2022-12-18T06:15:31;-4.90;99.90
53844;DHT22;39744;53.314;5.710;2022-12-18T06:17:56;-4.90;99.90
53844;DHT22;39744;53.314;5.710;2022-12-18T06:20:22;-5.00;99.90
53844;DHT22;39744;53.314;5.710;2022-12-18T06:22:48;-4.80;99.90
53844;DHT22;39744;53.314;5.710;2022-12-18T06:25:14;-5.00;99.90
53844;DHT22;39744;53.314;5.710;2022-12-18T06:27:39;-5.00;99.90
53844;DHT22;39744;53.314;5.710;2022-12-18T06:30:06;-5.00;99.90
53844;DHT22;39744;53.314;5.710;2022-12-18T06:32:32;-5.10;99.90
53844;DHT22;39744;53.314;5.710;2022-12-18T06:34:58;-5.10;99.90
53844;DHT22;39744;53.314;5.710;2022-12-18T06:37:23;-5.10;99.90
53844;DHT22;39744;53.314;5.710;2022-12-18T06:39:55;-5.00;99.90
53844;DHT22;39744;53.314;5.710;2022-12-18T06:42:22;-4.90;99.90
53844;DHT22;39744;53.314;5.710;2022-12-18T06:44:48;-4.80;99.90
53844;DHT22;39744;53.314;5.710;2022-12-18T06:47:13;-5.10;99.90
53844;DHT22;39744;53.314;5.710;2022-12-18T06:49:39;-5.10;99.90
53844;DHT22;39744;53.314;5.710;2022-12-18T06:52:04;-4.80;99.90
53844;DHT22;39744;53.314;5.710;2022-12-18T06:54:30;-4.80;99.90
53844;DHT22;39744;53.314;5.710;2022-12-18T06:56:56;-5.10;99.90
53844;DHT22;39744;53.314;5.710;2022-12-18T06:59:21;-5.10;99.90
53844;DHT22;39744;53.314;5.710;2022-12-18T07:01:47;-5.10;99.90
53844;DHT22;39744;53.314;5.710;2022-12-18T07:04:13;-5.10;99.90
53844;DHT22;39744;53.314;5.710;2022-12-18T07:06:38;-5.10;99.90
53844;DHT22;39744;53.314;5.710;2022-12-18T07:09:04;-4.90;99.90
53844;DHT22;39744;53.314;5.710;2022-12-18T07:11:32;-5.10;99.90
53844;DHT22;39744;53.314;5.710;2022-12-18T07:13:59;-5.10;99.90
53844;DHT22;39744;53.314;5.710;2022-12-18T07:16:25;-5.00;99.90
53844;DHT22;39744;53.314;5.710;2022-12-18T07:18:51;-5.00;99.90
53844;DHT22;39744;53.314;5.710;2022-12-18T07:21:18;-5.00;99.90
53844;DHT22;39744;53.314;5.710;2022-12-18T07:23:44;-5.00;99.90
53844;DHT22;39744;53.314;5.710;2022-12-18T07:26:14;-5.00;99.90
53844;DHT22;39744;53.314;5.710;2022-12-18T07:28:41;-5.00;99.90
53844;DHT22;39744;53.314;5.710;2022-12-18T07:31:09;-5.00;99.90
53844;DHT22;39744;53.314;5.710;2022-12-18T07:33:36;-5.00;99.90
53844;DHT22;39744;53.314;5.710;2022-12-18T07:36:03;-5.00;99.90
53844;DHT22;39744;53.314;5.710;2022-12-18T07:38:29;-5.00;99.90
53844;DHT22;39744;53.314;5.710;2022-12-18T07:41:00;-5.00;99.90
53844;DHT22;39744;53.314;5.710;2022-12-18T07:43:26;-5.00;99.90
53844;DHT22;39744;53.314;5.710;2022-12-18T07:45:52;-4.90;99.90
53844;DHT22;39744;53.314;5.710;2022-12-18T07:48:17;-4.60;99.90
53844;DHT22;39744;53.314;5.710;2022-12-18T07:50:43;-4.90;99.90
53844;DHT22;39744;53.314;5.710;2022-12-18T07:53:08;-4.90;99.90
53844;DHT22;39744;53.314;5.710;2022-12-18T07:55:34;-4.90;99.90
53844;DHT22;39744;53.314;5.710;2022-12-18T07:58:03;-4.90;99.90
53844;DHT22;39744;53.314;5.710;2022-12-18T08:00:30;-4.90;99.90
53844;DHT22;39744;53.314;5.710;2022-12-18T08:02:56;-4.60;99.90
53844;DHT22;39744;53.314;5.710;2022-12-18T08:05:22;-4.80;99.90
53844;DHT22;39744;53.314;5.710;2022-12-18T08:07:48;-4.80;99.90
53844;DHT22;39744;53.314;5.710;2022-12-18T08:10:13;-4.70;99.90
53844;DHT22;39744;53.314;5.710;2022-12-18T08:12:39;-4.70;99.90
53844;DHT22;39744;53.314;5.710;2022-12-18T08:15:05;-4.70;99.90
53844;DHT22;39744;53.314;5.710;2022-12-18T08:17:31;-4.70;99.90
53844;DHT22;39744;53.314;5.710;2022-12-18T08:19:57;-4.70;99.90
53844;DHT22;39744;53.314;5.710;2022-12-18T08:22:22;-4.70;99.90
53844;DHT22;39744;53.314;5.710;2022-12-18T08:24:48;-4.60;99.90
53844;DHT22;39744;53.314;5.710;2022-12-18T08:27:14;-4.60;99.90
53844;DHT22;39744;53.314;5.710;2022-12-18T08:29:39;-4.40;99.90
53844;DHT22;39744;53.314;5.710;2022-12-18T08:32:05;-4.50;99.90
53844;DHT22;39744;53.314;5.710;2022-12-18T08:34:31;-4.50;99.90
53844;DHT22;39744;53.314;5.710;2022-12-18T08:36:57;-4.50;99.90
53844;DHT22;39744;53.314;5.710;2022-12-18T08:39:22;-4.40;99.90
53844;DHT22;39744;53.314;5.710;2022-12-18T08:41:48;-4.10;99.90
53844;DHT22;39744;53.314;5.710;2022-12-18T08:44:34;-4.40;99.90
53844;DHT22;39744;53.314;5.710;2022-12-18T08:47:03;-4.30;99.90
53844;DHT22;39744;53.314;5.710;2022-12-18T08:49:28;-4.20;99.90
53844;DHT22;39744;53.314;5.710;2022-12-18T08:51:55;-4.10;99.90
53844;DHT22;39744;53.314;5.710;2022-12-18T08:54:22;-4.10;99.90
53844;DHT22;39744;53.314;5.710;2022-12-18T08:56:48;-4.10;99.90
53844;DHT22;39744;53.314;5.710;2022-12-18T08:59:15;-4.00;99.90
53844;DHT22;39744;53.314;5.710;2022-12-18T09:01:41;-3.90;99.90
53844;DHT22;39744;53.314;5.710;2022-12-18T09:04:08;-3.80;99.90
53844;DHT22;39744;53.314;5.710;2022-12-18T09:06:34;-3.80;99.90
53844;DHT22;39744;53.314;5.710;2022-12-18T09:08:59;-3.80;99.90
53844;DHT22;39744;53.314;5.710;2022-12-18T09:11:27;-3.70;99.90
53844;DHT22;39744;53.314;5.710;2022-12-18T09:13:53;-3.50;99.90
53844;DHT22;39744;53.314;5.710;2022-12-18T09:16:20;-3.50;99.90
53844;DHT22;39744;53.314;5.710;2022-12-18T09:18:46;-3.30;99.90
53844;DHT22;39744;53.314;5.710;2022-12-18T09:21:17;-3.40;99.90
53844;DHT22;39744;53.314;5.710;2022-12-18T09:23:43;-3.30;99.90
53844;DHT22;39744;53.314;5.710;2022-12-18T09:26:09;-3.00;99.90
53844;DHT22;39744;53.314;5.710;2022-12-18T09:28:35;-3.20;99.90
53844;DHT22;39744;53.314;5.710;2022-12-18T09:31:05;-3.20;99.90
53844;DHT22;39744;53.314;5.710;2022-12-18T09:33:32;-3.10;99.90
53844;DHT22;39744;53.314;5.710;2022-12-18T09:35:57;-3.10;99.90
53844;DHT22;39744;53.314;5.710;2022-12-18T09:38:26;-3.10;99.90
53844;DHT22;39744;53.314;5.710;2022-12-18T09:40:55;-3.10;99.90
53844;DHT22;39744;53.314;5.710;2022-12-18T09:43:37;-3.00;99.90
53844;DHT22;39744;53.314;5.710;2022-12-18T09:46:11;-3.00;99.90
53844;DHT22;39744;53.314;5.710;2022-12-18T09:48:44;-2.70;99.90
53844;DHT22;39744;53.314;5.710;2022-12-18T09:51:35;-2.90;99.90
53844;DHT22;39744;53.314;5.710;2022-12-18T09:54:05;-2.90;99.90
53844;DHT22;39744;53.314;5.710;2022-12-18T09:56:36;-2.60;99.90
53844;DHT22;39744;53.314;5.710;2022-12-18T09:59:04;-2.80;99.90
53844;DHT22;39744;53.314;5.710;2022-12-18T10:01:31;-2.60;99.90
53844;DHT22;39744;53.314;5.710;2022-12-18T10:03:57;-2.40;99.90
53844;DHT22;39744;53.314;5.710;2022-12-18T10:07:38;-2.50;99.90
53844;DHT22;39744;53.314;5.710;2022-12-18T10:12:25;-2.40;99.90
53844;DHT22;39744;53.314;5.710;2022-12-18T10:15:07;-2.40;99.90
53844;DHT22;39744;53.314;5.710;2022-12-18T10:17:51;-2.40;99.90
53844;DHT22;39744;53.314;5.710;2022-12-18T10:20:40;-2.30;99.90
53844;DHT22;39744;53.314;5.710;2022-12-18T10:23:13;-2.30;99.90
53844;DHT22;39744;53.314;5.710;2022-12-18T10:26:07;-2.20;99.90
53844;DHT22;39744;53.314;5.710;2022-12-18T10:28:39;-2.20;99.90
53844;DHT22;39744;53.314;5.710;2022-12-18T10:31:06;-2.10;99.90
53844;DHT22;39744;53.314;5.710;2022-12-18T10:33:33;-2.00;99.90
53844;DHT22;39744;53.314;5.710;2022-12-18T10:35:59;-2.00;99.90
53844;DHT22;39744;53.314;5.710;2022-12-18T10:38:30;-2.00;99.90
53844;DHT22;39744;53.314;5.710;2022-12-18T10:41:04;-1.90;99.90
53844;DHT22;39744;53.314;5.710;2022-12-18T10:43:34;-1.90;99.90
53844;DHT22;39744;53.314;5.710;2022-12-18T10:48:55;-1.90;99.90
53844;DHT22;39744;53.314;5.710;2022-12-18T10:51:28;-1.80;99.90
53844;DHT22;39744;53.314;5.710;2022-12-18T10:54:00;-1.80;99.90
53844;DHT22;39744;53.314;5.710;2022-12-18T10:56:28;-1.80;99.90
53844;DHT22;39744;53.314;5.710;2022-12-18T10:59:06;-1.80;99.90
53844;DHT22;39744;53.314;5.710;2022-12-18T11:01:52;-1.80;99.90
53844;DHT22;39744;53.314;5.710;2022-12-18T11:04:30;-1.80;99.90
53844;DHT22;39744;53.314;5.710;2022-12-18T11:07:02;-1.70;99.90
53844;DHT22;39744;53.314;5.710;2022-12-18T11:09:29;-1.70;99.90
53844;DHT22;39744;53.314;5.710;2022-12-18T11:12:01;-1.60;99.90
53844;DHT22;39744;53.314;5.710;2022-12-18T11:14:30;-1.50;99.90
53844;DHT22;39744;53.314;5.710;2022-12-18T11:16:58;-1.60;99.90
53844;DHT22;39744;53.314;5.710;2022-12-18T11:19:36;-1.60;99.90
53844;DHT22;39744;53.314;5.710;2022-12-18T11:22:23;-1.50;99.90
53844;DHT22;39744;53.314;5.710;2022-12-18T11:24:56;-1.50;99.90
53844;DHT22;39744;53.314;5.710;2022-12-18T11:27:22;-1.40;99.90
53844;DHT22;39744;53.314;5.710;2022-12-18T11:29:50;-1.40;99.90
53844;DHT22;39744;53.314;5.710;2022-12-18T11:32:34;-1.40;99.90
53844;DHT22;39744;53.314;5.710;2022-12-18T11:35:42;-1.40;99.90
53844;DHT22;39744;53.314;5.710;2022-12-18T11:38:32;-1.30;99.90
53844;DHT22;39744;53.314;5.710;2022-12-18T11:41:23;-1.30;99.90
53844;DHT22;39744;53.314;5.710;2022-12-18T11:44:12;-1.30;99.90
53844;DHT22;39744;53.314;5.710;2022-12-18T11:46:47;-1.30;99.90
53844;DHT22;39744;53.314;5.710;2022-12-18T11:49:28;-1.30;99.90
53844;DHT22;39744;53.314;5.710;2022-12-18T11:52:15;-1.20;99.90
53844;DHT22;39744;53.314;5.710;2022-12-18T11:54:41;-1.20;99.90
53844;DHT22;39744;53.314;5.710;2022-12-18T12:00:04;-1.20;99.90
53844;DHT22;39744;53.314;5.710;2022-12-18T12:05:48;-1.10;99.90
53844;DHT22;39744;53.314;5.710;2022-12-18T12:08:33;-1.20;99.90
53844;DHT22;39744;53.314;5.710;2022-12-18T12:11:23;-1.10;99.90
53844;DHT22;39744;53.314;5.710;2022-12-18T12:16:41;-1.10;99.90
53844;DHT22;39744;53.314;5.710;2022-12-18T12:24:55;-1.10;99.90
53844;DHT22;39744;53.314;5.710;2022-12-18T12:36:12;-0.90;99.90
53844;DHT22;39744;53.314;5.710;2022-12-18T12:38:48;-0.90;99.90
53844;DHT22;39744;53.314;5.710;2022-12-18T12:41:19;-0.80;99.90
53844;DHT22;39744;53.314;5.710;2022-12-18T12:44:07;-0.80;99.90
53844;DHT22;39744;53.314;5.710;2022-12-18T12:46:37;-0.70;99.90
53844;DHT22;39744;53.314;5.710;2022-12-18T12:49:12;-0.70;99.90
53844;DHT22;39744;53.314;5.710;2022-12-18T12:51:41;-0.70;99.90
53844;DHT22;39744;53.314;5.710;2022-12-18T12:54:23;-0.70;99.90
53844;DHT22;39744;53.314;5.710;2022-12-18T12:57:10;-0.70;99.90
53844;DHT22;39744;53.314;5.710;2022-12-18T13:07:52;-0.80;99.90
53844;DHT22;39744;53.314;5.710;2022-12-18T13:12:59;-0.80;99.90
53844;DHT22;39744;53.314;5.710;2022-12-18T13:15:46;-0.80;99.90
53844;DHT22;39744;53.314;5.710;2022-12-18T13:18:20;-0.80;99.90
53844;DHT22;39744;53.314;5.710;2022-12-18T13:25:48;-0.80;99.90
53844;DHT22;39744;53.314;5.710;2022-12-18T13:28:21;-0.80;99.90
53844;DHT22;39744;53.314;5.710;2022-12-18T13:30:55;-0.80;99.90
53844;DHT22;39744;53.314;5.710;2022-12-18T13:38:22;-0.80;99.90
53844;DHT22;39744;53.314;5.710;2022-12-18T13:51:24;-0.90;99.90
53844;DHT22;39744;53.314;5.710;2022-12-18T13:53:54;-0.90;99.90
53844;DHT22;39744;53.314;5.710;2022-12-18T13:56:26;-0.90;99.90
53844;DHT22;39744;53.314;5.710;2022-12-18T13:59:19;-0.90;99.90
53844;DHT22;39744;53.314;5.710;2022-12-18T14:01:56;-1.00;99.90
53844;DHT22;39744;53.314;5.710;2022-12-18T14:04:27;-1.00;99.90
53844;DHT22;39744;53.314;5.710;2022-12-18T14:07:04;-1.00;99.90
53844;DHT22;39744;53.314;5.710;2022-12-18T14:09:35;-1.00;99.90
53844;DHT22;39744;53.314;5.710;2022-12-18T14:12:02;-1.00;99.90
53844;DHT22;39744;53.314;5.710;2022-12-18T14:14:49;-1.00;99.90
53844;DHT22;39744;53.314;5.710;2022-12-18T14:17:16;-1.10;99.90
53844;DHT22;39744;53.314;5.710;2022-12-18T14:19:47;-1.10;99.90
53844;DHT22;39744;53.314;5.710;2022-12-18T14:22:21;-1.10;99.90
53844;DHT22;39744;53.314;5.710;2022-12-18T14:25:13;-1.10;99.90
53844;DHT22;39744;53.314;5.710;2022-12-18T14:27:45;-1.10;99.90
53844;DHT22;39744;53.314;5.710;2022-12-18T14:30:32;-1.20;99.90
53844;DHT22;39744;53.314;5.710;2022-12-18T14:33:25;-1.20;99.90
53844;DHT22;39744;53.314;5.710;2022-12-18T14:36:02;-1.20;99.90
53844;DHT22;39744;53.314;5.710;2022-12-18T14:38:37;-1.20;99.90
53844;DHT22;39744;53.314;5.710;2022-12-18T14:41:04;-1.20;99.90
53844;DHT22;39744;53.314;5.710;2022-12-18T14:43:35;-1.30;99.90
53844;DHT22;39744;53.314;5.710;2022-12-18T14:46:03;-1.30;99.90
53844;DHT22;39744;53.314;5.710;2022-12-18T14:48:41;-1.30;99.90
53844;DHT22;39744;53.314;5.710;2022-12-18T14:53:39;-1.40;99.90
53844;DHT22;39744;53.314;5.710;2022-12-18T14:56:32;-1.40;99.90
53844;DHT22;39744;53.314;5.710;2022-12-18T14:59:04;-1.50;99.90
53844;DHT22;39744;53.314;5.710;2022-12-18T15:01:36;-1.50;99.90
53844;DHT22;39744;53.314;5.710;2022-12-18T15:04:03;-1.50;99.90
53844;DHT22;39744;53.314;5.710;2022-12-18T15:06:37;-1.20;99.90
53844;DHT22;39744;53.314;5.710;2022-12-18T15:09:22;-1.50;99.90
53844;DHT22;39744;53.314;5.710;2022-12-18T15:11:48;-1.50;99.90
53844;DHT22;39744;53.314;5.710;2022-12-18T15:14:23;-1.50;99.90
53844;DHT22;39744;53.314;5.710;2022-12-18T15:16:51;-1.50;99.90
53844;DHT22;39744;53.314;5.710;2022-12-18T15:19:18;-1.60;99.90
53844;DHT22;39744;53.314;5.710;2022-12-18T15:21:44;-1.60;99.90
53844;DHT22;39744;53.314;5.710;2022-12-18T15:24:24;-1.60;99.90
53844;DHT22;39744;53.314;5.710;2022-12-18T15:26:51;-1.60;99.90
53844;DHT22;39744;53.314;5.710;2022-12-18T15:29:21;-1.60;99.90
53844;DHT22;39744;53.314;5.710;2022-12-18T15:32:04;-1.60;99.90
53844;DHT22;39744;53.314;5.710;2022-12-18T15:34:31;-1.50;99.90
53844;DHT22;39744;53.314;5.710;2022-12-18T15:36:57;-1.50;99.90
53844;DHT22;39744;53.314;5.710;2022-12-18T15:39:23;-1.50;99.90
53844;DHT22;39744;53.314;5.710;2022-12-18T15:41:49;-1.50;99.90
53844;DHT22;39744;53.314;5.710;2022-12-18T15:44:33;-1.50;99.90
53844;DHT22;39744;53.314;5.710;2022-12-18T15:46:59;-1.50;99.90
53844;DHT22;39744;53.314;5.710;2022-12-18T15:49:25;-1.50;99.90
53844;DHT22;39744;53.314;5.710;2022-12-18T15:51:57;-1.50;99.90
53844;DHT22;39744;53.314;5.710;2022-12-18T15:54:23;-1.40;99.90
53844;DHT22;39744;53.314;5.710;2022-12-18T15:57:09;-1.50;99.90
53844;DHT22;39744;53.314;5.710;2022-12-18T15:59:52;-1.60;99.90
53844;DHT22;39744;53.314;5.710;2022-12-18T16:02:19;-1.50;99.90
53844;DHT22;39744;53.314;5.710;2022-12-18T16:04:45;-1.50;99.90
53844;DHT22;39744;53.314;5.710;2022-12-18T16:07:13;-1.50;99.90
53844;DHT22;39744;53.314;5.710;2022-12-18T16:09:41;-1.50;99.90
53844;DHT22;39744;53.314;5.710;2022-12-18T16:12:15;-1.50;99.90
53844;DHT22;39744;53.314;5.710;2022-12-18T16:14:42;-1.50;99.90
53844;DHT22;39744;53.314;5.710;2022-12-18T16:17:11;-1.50;99.90
53844;DHT22;39744;53.314;5.710;2022-12-18T16:19:37;-1.40;99.90
53844;DHT22;39744;53.314;5.710;2022-12-18T16:22:03;-1.40;99.90
53844;DHT22;39744;53.314;5.710;2022-12-18T16:24:32;-1.30;99.90
53844;DHT22;39744;53.314;5.710;2022-12-18T16:26:59;-1.40;99.90
53844;DHT22;39744;53.314;5.710;2022-12-18T16:29:26;-1.30;99.90
53844;DHT22;39744;53.314;5.710;2022-12-18T16:32:02;-1.30;99.90
53844;DHT22;39744;53.314;5.710;2022-12-18T16:34:33;-1.30;99.90
53844;DHT22;39744;53.314;5.710;2022-12-18T16:37:07;-1.30;99.90
53844;DHT22;39744;53.314;5.710;2022-12-18T16:39:33;-1.20;99.90
53844;DHT22;39744;53.314;5.710;2022-12-18T16:42:00;-1.20;99.90
53844;DHT22;39744;53.314;5.710;2022-12-18T16:44:26;-1.20;99.90
53844;DHT22;39744;53.314;5.710;2022-12-18T16:46:51;-1.10;99.90
53844;DHT22;39744;53.314;5.710;2022-12-18T16:49:18;-1.10;99.90
53844;DHT22;39744;53.314;5.710;2022-12-18T16:51:45;-1.10;99.90
53844;DHT22;39744;53.314;5.710;2022-12-18T16:54:11;-1.00;99.90
53844;DHT22;39744;53.314;5.710;2022-12-18T16:56:36;-1.00;99.90
53844;DHT22;39744;53.314;5.710;2022-12-18T16:59:03;-1.00;99.90
53844;DHT22;39744;53.314;5.710;2022-12-18T17:01:30;-1.00;99.90